»·PEaware :: DAL821 KSLC-KPDX

DAL821 :: KSLC-KPDX

FLIGHT INFORMATION

Flight Status: Arrived
Operator:
Delta Air Lines
More flights by this operator :: More flights under this callsign
Pilot: Andre N. (13929)
Aircraft: BOEING 767-300
(B763)
More flights by this aircraft type
Origin: KSLC Salt Lake City Intl
United States
Destination: KPDX Portland Intl
United States
More flights between these airports :: More routes between these airports
Route: +TWF4 TWF J15 BOI J163 BKE JOTBA HHOOD4
File this flight plan on PilotEdge
Remarks:
Altitude:
(Current/Filed)
35,000ft
Speed:
(Current/Filed)
450kts
Departed: 25-Apr-18 03:53 PM
Arrived: 25-Apr-18 05:23 PM
Distance/Time
Traveled:
546nm/1:30
Distance/Time
To Go:
Arrived

Flight Plot

Page will automatically refresh every two minutes.

Flight plan parsing failed; only flown route is shown


Map Options




Map Legend


Flown Route
Filed Route
Departure Airport
Arrival Airport
Navaid (VOR, NDB)
Fix

Horizontal Profiles

Position Reports

Time Latitude Longitude Heading Altitude Ground
Speed
25-Apr-18 15:25 40.789274 -111.978823 170 4238ft 0kts
25-Apr-18 15:26 40.789274 -111.978823 170 4238ft 0kts
25-Apr-18 15:27 40.789274 -111.978823 170 4238ft 0kts
25-Apr-18 15:28 40.789274 -111.978823 170 4238ft 0kts
25-Apr-18 15:29 40.789274 -111.978824 170 4238ft 0kts
25-Apr-18 15:30 40.789274 -111.978824 170 4238ft 0kts
25-Apr-18 15:31 40.789274 -111.978824 170 4238ft 0kts
25-Apr-18 15:32 40.789274 -111.978824 170 4238ft 0kts
25-Apr-18 15:33 40.789274 -111.978824 170 4238ft 0kts
25-Apr-18 15:34 40.789274 -111.978824 170 4238ft 0kts
25-Apr-18 15:35 40.789274 -111.978824 170 4238ft 0kts
25-Apr-18 15:36 40.789274 -111.978824 170 4238ft 0kts
25-Apr-18 15:37 40.789274 -111.978824 170 4238ft 0kts
25-Apr-18 15:38 40.789274 -111.978824 170 4238ft 0kts
25-Apr-18 15:39 40.789274 -111.978824 170 4238ft 0kts
25-Apr-18 15:40 40.789274 -111.978824 170 4238ft 0kts
25-Apr-18 15:41 40.789274 -111.978824 170 4238ft 0kts
25-Apr-18 15:42 40.789576 -111.979087 118 4238ft 2kts
25-Apr-18 15:43 40.789673 -111.978814 84 4238ft 4kts
25-Apr-18 15:44 40.789684 -111.978664 84 4238ft 0kts
25-Apr-18 15:45 40.789684 -111.978664 84 4238ft 0kts
25-Apr-18 15:46 40.789736 -111.977888 87 4238ft 7kts
25-Apr-18 15:47 40.785447 -111.976554 175 4238ft 24kts
25-Apr-18 15:48 40.778913 -111.975466 160 4238ft 23kts
25-Apr-18 15:49 40.774834 -111.974784 160 4238ft 0kts
25-Apr-18 15:50 40.774816 -111.974774 158 4238ft 1kts
25-Apr-18 15:51 40.776478 -111.973373 354 4238ft 24kts
25-Apr-18 15:52 40.815510 -111.985845 313 5154ft 222kts
25-Apr-18 15:53 40.840486 -112.059997 294 8689ft 240kts
25-Apr-18 15:54 40.872639 -112.155604 294 10954ft 310kts
25-Apr-18 15:55 40.917265 -112.253746 320 14916ft 326kts
25-Apr-18 15:56 40.988501 -112.328991 317 18367ft 341kts
25-Apr-18 15:57 41.060879 -112.412885 316 21580ft 355kts
25-Apr-18 15:58 41.138042 -112.483111 324 24113ft 373kts
25-Apr-18 15:59 41.223218 -112.564103 319 26675ft 384kts
25-Apr-18 16:00 41.302195 -112.655970 310 26953ft 413kts
25-Apr-18 16:01 41.382853 -112.773185 309 28875ft 439kts
25-Apr-18 16:02 41.464403 -112.896401 308 31024ft 452kts
25-Apr-18 16:03 41.546481 -113.022028 308 33557ft 449kts
25-Apr-18 16:04 41.628101 -113.147494 308 34010ft 442kts
25-Apr-18 16:05 41.708566 -113.271728 308 34005ft 443kts
25-Apr-18 16:06 41.788810 -113.396115 308 33997ft 443kts
25-Apr-18 16:07 41.869197 -113.521251 308 33985ft 443kts
25-Apr-18 16:08 41.949357 -113.646567 308 33985ft 443kts
25-Apr-18 16:09 42.028272 -113.770446 307 33994ft 443kts
25-Apr-18 16:10 42.107391 -113.895167 307 33991ft 443kts
25-Apr-18 16:11 42.185163 -114.018271 307 33990ft 443kts
25-Apr-18 16:12 42.264756 -114.144789 307 33999ft 443kts
25-Apr-18 16:13 42.344214 -114.271643 307 34008ft 443kts
25-Apr-18 16:14 42.423510 -114.398777 307 34006ft 443kts
25-Apr-18 16:15 42.503109 -114.525385 309 34006ft 445kts
25-Apr-18 16:16 42.584413 -114.651074 308 34005ft 445kts
25-Apr-18 16:17 42.664324 -114.775196 308 34010ft 445kts
25-Apr-18 16:18 42.745510 -114.901846 308 34012ft 445kts
25-Apr-18 16:19 42.826513 -115.028763 308 34005ft 446kts
25-Apr-18 16:20 42.907861 -115.156778 308 33982ft 448kts
25-Apr-18 16:21 42.988702 -115.284551 308 33970ft 442kts
25-Apr-18 16:22 43.068418 -115.411097 309 33968ft 438kts
25-Apr-18 16:23 43.144025 -115.531626 308 33967ft 439kts
25-Apr-18 16:24 43.222697 -115.657569 308 33970ft 438kts
25-Apr-18 16:25 43.300289 -115.782342 308 33974ft 438kts
25-Apr-18 16:26 43.379092 -115.909601 308 33975ft 438kts
25-Apr-18 16:27 43.457698 -116.037104 308 33978ft 438kts
25-Apr-18 16:28 43.536372 -116.165283 308 33982ft 438kts
25-Apr-18 16:29 43.625211 -116.280280 316 33971ft 441kts
25-Apr-18 16:30 43.716692 -116.392317 316 33962ft 440kts
25-Apr-18 16:31 43.808298 -116.504897 316 33967ft 441kts
25-Apr-18 16:32 43.897196 -116.614597 316 33973ft 441kts
25-Apr-18 16:33 43.987170 -116.726097 315 33984ft 441kts
25-Apr-18 16:34 44.078083 -116.839235 315 33991ft 440kts
25-Apr-18 16:35 44.165369 -116.948335 315 33991ft 442kts
25-Apr-18 16:36 44.257264 -117.063676 315 33993ft 447kts
25-Apr-18 16:37 44.349660 -117.180151 316 33991ft 449kts
25-Apr-18 16:38 44.441640 -117.296613 316 33994ft 449kts
25-Apr-18 16:39 44.534118 -117.414242 316 33997ft 449kts
25-Apr-18 16:40 44.626107 -117.531773 315 33997ft 449kts
25-Apr-18 16:41 44.718001 -117.649703 316 33997ft 449kts
25-Apr-18 16:42 44.807279 -117.767533 308 33994ft 447kts
25-Apr-18 16:43 44.854394 -117.925783 281 34007ft 443kts
25-Apr-18 16:44 44.878280 -118.095733 280 34000ft 443kts
25-Apr-18 16:45 44.900459 -118.265896 280 33986ft 443kts
25-Apr-18 16:46 44.922259 -118.436374 280 33975ft 440kts
25-Apr-18 16:47 44.943756 -118.606672 280 33971ft 441kts
25-Apr-18 16:48 44.964397 -118.772236 279 33983ft 441kts
25-Apr-18 16:49 44.985375 -118.942589 279 33981ft 443kts
25-Apr-18 16:50 45.006229 -119.114267 279 33979ft 446kts
25-Apr-18 16:51 45.026898 -119.286627 279 33968ft 445kts
25-Apr-18 16:52 45.047218 -119.458349 279 33964ft 445kts
25-Apr-18 16:53 45.067309 -119.630420 279 33961ft 443kts
25-Apr-18 16:54 45.086084 -119.793315 279 32190ft 434kts
25-Apr-18 16:55 45.101813 -119.931473 279 30476ft 431kts
25-Apr-18 16:56 45.119693 -120.090449 279 28558ft 427kts
25-Apr-18 16:57 45.137942 -120.254811 279 26565ft 421kts
25-Apr-18 16:58 45.155598 -120.416105 279 24510ft 394kts
25-Apr-18 16:59 45.178592 -120.549943 299 22880ft 370kts
25-Apr-18 17:00 45.225764 -120.672429 298 21599ft 365kts
25-Apr-18 17:01 45.266956 -120.779559 298 20460ft 357kts
25-Apr-18 17:02 45.313631 -120.901401 298 19244ft 351kts
25-Apr-18 17:03 45.359864 -121.022610 298 18043ft 347kts
25-Apr-18 17:04 45.405212 -121.141905 298 16770ft 344kts
25-Apr-18 17:05 45.440817 -121.265815 285 15476ft 339kts
25-Apr-18 17:06 45.466287 -121.394167 285 14080ft 338kts
25-Apr-18 17:07 45.491905 -121.523716 285 12297ft 329kts
25-Apr-18 17:08 45.514414 -121.638042 285 10406ft 291kts
25-Apr-18 17:09 45.529907 -121.734913 273 9374ft 272kts
25-Apr-18 17:10 45.533679 -121.831518 273 8358ft 237kts
25-Apr-18 17:11 45.537038 -121.925331 273 7538ft 237kts
25-Apr-18 17:12 45.541578 -122.018863 274 6745ft 235kts
25-Apr-18 17:13 45.514114 -122.097096 236 6144ft 223kts
25-Apr-18 17:14 45.478369 -122.169985 241 5175ft 225kts
25-Apr-18 17:15 45.478539 -122.248843 277 4435ft 193kts
25-Apr-18 17:16 45.487760 -122.321469 300 3679ft 177kts
25-Apr-18 17:17 45.511725 -122.382812 299 2891ft 172kts
25-Apr-18 17:18 45.533375 -122.438138 299 2054ft 147kts
25-Apr-18 17:19 45.552589 -122.487328 297 1303ft 144kts
25-Apr-18 17:20 45.572986 -122.539444 298 515ft 149kts
25-Apr-18 17:21 45.590680 -122.585095 299 40ft 81kts
25-Apr-18 17:22 45.592090 -122.590353 273 40ft 1kts
25-Apr-18 17:23 45.592106 -122.591404 271 40ft 5kts
25-Apr-18 17:24 45.592164 -122.594861 233 40ft 4kts

Navigation Log

Ident Type
Flight plan parsing failed, navigation log unavailable